sensor_id;sensor_type;location;lat;lon;timestamp;temperature;humidity
7232;DHT22;3657;49.630;11.018;2022-09-09T00:01:37;17.80;85.60
7232;DHT22;3657;49.630;11.018;2022-09-09T00:04:14;17.70;85.30
7232;DHT22;3657;49.630;11.018;2022-09-09T00:06:45;17.70;85.40
7232;DHT22;3657;49.630;11.018;2022-09-09T00:09:16;17.70;85.50
7232;DHT22;3657;49.630;11.018;2022-09-09T00:11:47;17.70;85.50
7232;DHT22;3657;49.630;11.018;2022-09-09T00:14:21;17.60;85.50
7232;DHT22;3657;49.630;11.018;2022-09-09T00:16:53;17.60;85.50
7232;DHT22;3657;49.630;11.018;2022-09-09T00:19:24;17.60;85.40
7232;DHT22;3657;49.630;11.018;2022-09-09T00:21:59;17.60;85.50
7232;DHT22;3657;49.630;11.018;2022-09-09T00:24:38;17.50;86.10
7232;DHT22;3657;49.630;11.018;2022-09-09T00:27:11;17.50;85.80
7232;DHT22;3657;49.630;11.018;2022-09-09T00:29:44;17.50;85.90
7232;DHT22;3657;49.630;11.018;2022-09-09T00:32:15;17.50;86.00
7232;DHT22;3657;49.630;11.018;2022-09-09T00:34:47;17.40;85.90
7232;DHT22;3657;49.630;11.018;2022-09-09T00:37:14;17.40;86.50
7232;DHT22;3657;49.630;11.018;2022-09-09T00:39:44;17.40;85.90
7232;DHT22;3657;49.630;11.018;2022-09-09T00:42:15;17.40;86.00
7232;DHT22;3657;49.630;11.018;2022-09-09T00:44:53;17.40;86.00
7232;DHT22;3657;49.630;11.018;2022-09-09T00:47:40;17.30;86.20
7232;DHT22;3657;49.630;11.018;2022-09-09T00:50:17;17.30;86.20
7232;DHT22;3657;49.630;11.018;2022-09-09T00:52:59;17.30;86.10
7232;DHT22;3657;49.630;11.018;2022-09-09T00:55:36;17.20;86.00
7232;DHT22;3657;49.630;11.018;2022-09-09T00:58:06;17.20;86.20
7232;DHT22;3657;49.630;11.018;2022-09-09T01:00:40;17.20;86.30
7232;DHT22;3657;49.630;11.018;2022-09-09T01:03:22;17.10;86.10
7232;DHT22;3657;49.630;11.018;2022-09-09T01:06:04;17.10;86.30
7232;DHT22;3657;49.630;11.018;2022-09-09T01:08:42;17.10;86.30
7232;DHT22;3657;49.630;11.018;2022-09-09T01:11:21;17.10;86.40
7232;DHT22;3657;49.630;11.018;2022-09-09T01:13:53;17.10;88.10
7232;DHT22;3657;49.630;11.018;2022-09-09T01:16:24;17.10;86.70
7232;DHT22;3657;49.630;11.018;2022-09-09T01:18:53;17.00;86.60
7232;DHT22;3657;49.630;11.018;2022-09-09T01:21:27;17.00;86.60
7232;DHT22;3657;49.630;11.018;2022-09-09T01:24:14;17.00;86.60
7232;DHT22;3657;49.630;11.018;2022-09-09T01:26:47;17.00;86.70
7232;DHT22;3657;49.630;11.018;2022-09-09T01:29:17;16.90;86.70
7232;DHT22;3657;49.630;11.018;2022-09-09T01:31:53;16.90;86.70
7232;DHT22;3657;49.630;11.018;2022-09-09T01:34:21;16.90;86.70
7232;DHT22;3657;49.630;11.018;2022-09-09T01:36:53;16.90;86.80
7232;DHT22;3657;49.630;11.018;2022-09-09T01:39:23;16.90;87.00
7232;DHT22;3657;49.630;11.018;2022-09-09T01:41:51;16.80;87.00
7232;DHT22;3657;49.630;11.018;2022-09-09T01:44:19;16.80;87.00
7232;DHT22;3657;49.630;11.018;2022-09-09T01:46:46;16.80;87.30
7232;DHT22;3657;49.630;11.018;2022-09-09T01:49:13;16.80;87.10
7232;DHT22;3657;49.630;11.018;2022-09-09T01:51:42;16.80;87.30
7232;DHT22;3657;49.630;11.018;2022-09-09T01:54:10;16.80;87.50
7232;DHT22;3657;49.630;11.018;2022-09-09T01:56:43;16.70;87.30
7232;DHT22;3657;49.630;11.018;2022-09-09T01:59:27;16.70;87.50
7232;DHT22;3657;49.630;11.018;2022-09-09T02:02:08;16.70;87.60
7232;DHT22;3657;49.630;11.018;2022-09-09T02:04:39;16.70;88.00
7232;DHT22;3657;49.630;11.018;2022-09-09T02:07:14;16.60;88.10
7232;DHT22;3657;49.630;11.018;2022-09-09T02:09:49;16.60;88.30
7232;DHT22;3657;49.630;11.018;2022-09-09T02:12:19;16.60;88.40
7232;DHT22;3657;49.630;11.018;2022-09-09T02:15:02;16.50;88.10
7232;DHT22;3657;49.630;11.018;2022-09-09T02:17:33;16.50;90.00
7232;DHT22;3657;49.630;11.018;2022-09-09T02:20:05;16.50;89.40
7232;DHT22;3657;49.630;11.018;2022-09-09T02:22:34;16.40;90.70
7232;DHT22;3657;49.630;11.018;2022-09-09T02:25:03;16.30;90.90
7232;DHT22;3657;49.630;11.018;2022-09-09T02:27:31;16.30;90.90
7232;DHT22;3657;49.630;11.018;2022-09-09T02:30:00;16.30;90.80
7232;DHT22;3657;49.630;11.018;2022-09-09T02:32:29;16.30;90.80
7232;DHT22;3657;49.630;11.018;2022-09-09T02:35:02;16.20;93.00
7232;DHT22;3657;49.630;11.018;2022-09-09T02:37:33;16.10;92.10
7232;DHT22;3657;49.630;11.018;2022-09-09T02:40:02;16.10;91.50
7232;DHT22;3657;49.630;11.018;2022-09-09T02:42:29;16.10;93.10
7232;DHT22;3657;49.630;11.018;2022-09-09T02:44:56;16.10;93.30
7232;DHT22;3657;49.630;11.018;2022-09-09T02:47:30;16.10;93.20
7232;DHT22;3657;49.630;11.018;2022-09-09T02:50:08;16.10;92.30
7232;DHT22;3657;49.630;11.018;2022-09-09T02:52:47;15.90;95.90
7232;DHT22;3657;49.630;11.018;2022-09-09T02:55:20;16.00;93.60
7232;DHT22;3657;49.630;11.018;2022-09-09T02:57:51;16.00;93.40
7232;DHT22;3657;49.630;11.018;2022-09-09T03:00:23;16.10;95.10
7232;DHT22;3657;49.630;11.018;2022-09-09T03:02:52;16.00;95.00
7232;DHT22;3657;49.630;11.018;2022-09-09T03:05:20;16.00;93.30
7232;DHT22;3657;49.630;11.018;2022-09-09T03:07:47;16.10;95.00
7232;DHT22;3657;49.630;11.018;2022-09-09T03:10:15;16.10;93.70
7232;DHT22;3657;49.630;11.018;2022-09-09T03:12:41;16.00;95.60
7232;DHT22;3657;49.630;11.018;2022-09-09T03:15:09;16.10;96.30
7232;DHT22;3657;49.630;11.018;2022-09-09T03:17:36;15.90;95.80
7232;DHT22;3657;49.630;11.018;2022-09-09T03:20:05;15.90;96.20
7232;DHT22;3657;49.630;11.018;2022-09-09T03:22:33;15.90;95.20
7232;DHT22;3657;49.630;11.018;2022-09-09T03:25:00;16.00;97.00
7232;DHT22;3657;49.630;11.018;2022-09-09T03:27:28;15.90;98.00
7232;DHT22;3657;49.630;11.018;2022-09-09T03:29:55;15.80;97.60
7232;DHT22;3657;49.630;11.018;2022-09-09T03:32:23;15.80;95.30
7232;DHT22;3657;49.630;11.018;2022-09-09T03:34:51;15.90;95.30
7232;DHT22;3657;49.630;11.018;2022-09-09T03:37:20;15.90;96.30
7232;DHT22;3657;49.630;11.018;2022-09-09T03:39:48;15.90;96.00
7232;DHT22;3657;49.630;11.018;2022-09-09T03:42:15;15.90;94.70
7232;DHT22;3657;49.630;11.018;2022-09-09T03:44:44;15.90;96.60
7232;DHT22;3657;49.630;11.018;2022-09-09T03:47:15;15.90;95.80
7232;DHT22;3657;49.630;11.018;2022-09-09T03:49:42;16.00;95.70
7232;DHT22;3657;49.630;11.018;2022-09-09T03:52:09;16.00;95.00
7232;DHT22;3657;49.630;11.018;2022-09-09T03:54:37;16.00;96.80
7232;DHT22;3657;49.630;11.018;2022-09-09T03:57:04;16.10;95.50
7232;DHT22;3657;49.630;11.018;2022-09-09T03:59:31;16.00;96.50
7232;DHT22;3657;49.630;11.018;2022-09-09T04:01:58;15.90;97.20
7232;DHT22;3657;49.630;11.018;2022-09-09T04:04:25;15.80;97.20
7232;DHT22;3657;49.630;11.018;2022-09-09T04:06:52;15.80;97.80
7232;DHT22;3657;49.630;11.018;2022-09-09T04:09:19;15.80;97.70
7232;DHT22;3657;49.630;11.018;2022-09-09T04:11:47;15.70;99.10
7232;DHT22;3657;49.630;11.018;2022-09-09T04:14:15;15.50;99.20
7232;DHT22;3657;49.630;11.018;2022-09-09T04:16:41;15.50;99.30
7232;DHT22;3657;49.630;11.018;2022-09-09T04:19:10;15.50;98.60
7232;DHT22;3657;49.630;11.018;2022-09-09T04:21:39;15.60;99.60
7232;DHT22;3657;49.630;11.018;2022-09-09T04:24:06;15.50;99.00
7232;DHT22;3657;49.630;11.018;2022-09-09T04:26:33;15.60;99.10
7232;DHT22;3657;49.630;11.018;2022-09-09T04:29:02;15.60;98.00
7232;DHT22;3657;49.630;11.018;2022-09-09T04:31:29;15.70;98.20
7232;DHT22;3657;49.630;11.018;2022-09-09T04:33:56;15.70;98.70
7232;DHT22;3657;49.630;11.018;2022-09-09T04:36:22;15.70;97.20
7232;DHT22;3657;49.630;11.018;2022-09-09T04:38:49;15.80;97.20
7232;DHT22;3657;49.630;11.018;2022-09-09T04:41:16;15.80;97.70
7232;DHT22;3657;49.630;11.018;2022-09-09T04:43:43;15.80;99.10
7232;DHT22;3657;49.630;11.018;2022-09-09T04:46:11;15.80;98.60
7232;DHT22;3657;49.630;11.018;2022-09-09T04:48:38;15.80;98.70
7232;DHT22;3657;49.630;11.018;2022-09-09T04:51:06;15.80;98.00
7232;DHT22;3657;49.630;11.018;2022-09-09T04:53:34;15.80;97.20
7232;DHT22;3657;49.630;11.018;2022-09-09T04:56:02;15.80;96.20
7232;DHT22;3657;49.630;11.018;2022-09-09T04:58:29;15.70;99.50
7232;DHT22;3657;49.630;11.018;2022-09-09T05:01:03;15.70;99.50
7232;DHT22;3657;49.630;11.018;2022-09-09T05:03:31;15.70;97.20
7232;DHT22;3657;49.630;11.018;2022-09-09T05:06:03;15.80;96.60
7232;DHT22;3657;49.630;11.018;2022-09-09T05:08:30;15.80;98.00
7232;DHT22;3657;49.630;11.018;2022-09-09T05:10:57;15.80;98.90
7232;DHT22;3657;49.630;11.018;2022-09-09T05:13:25;15.80;98.80
7232;DHT22;3657;49.630;11.018;2022-09-09T05:15:52;15.70;98.50
7232;DHT22;3657;49.630;11.018;2022-09-09T05:18:19;15.70;98.40
7232;DHT22;3657;49.630;11.018;2022-09-09T05:20:49;15.70;99.00
7232;DHT22;3657;49.630;11.018;2022-09-09T05:23:16;15.80;98.20
7232;DHT22;3657;49.630;11.018;2022-09-09T05:25:43;15.80;98.50
7232;DHT22;3657;49.630;11.018;2022-09-09T05:28:12;15.70;98.80
7232;DHT22;3657;49.630;11.018;2022-09-09T05:30:38;15.70;98.60
7232;DHT22;3657;49.630;11.018;2022-09-09T05:33:05;15.70;99.00
7232;DHT22;3657;49.630;11.018;2022-09-09T05:35:34;15.70;99.10
7232;DHT22;3657;49.630;11.018;2022-09-09T05:38:02;15.70;98.80
7232;DHT22;3657;49.630;11.018;2022-09-09T05:40:29;15.70;98.90
7232;DHT22;3657;49.630;11.018;2022-09-09T05:43:00;15.80;98.20
7232;DHT22;3657;49.630;11.018;2022-09-09T05:45:27;15.80;98.80
7232;DHT22;3657;49.630;11.018;2022-09-09T05:47:54;15.80;98.20
7232;DHT22;3657;49.630;11.018;2022-09-09T05:50:20;15.70;99.70
7232;DHT22;3657;49.630;11.018;2022-09-09T05:52:47;15.70;99.40
7232;DHT22;3657;49.630;11.018;2022-09-09T05:55:16;15.80;97.90
7232;DHT22;3657;49.630;11.018;2022-09-09T05:57:48;16.00;98.40
7232;DHT22;3657;49.630;11.018;2022-09-09T06:00:15;16.10;98.50
7232;DHT22;3657;49.630;11.018;2022-09-09T06:02:42;16.20;98.10
7232;DHT22;3657;49.630;11.018;2022-09-09T06:05:09;16.30;97.40
7232;DHT22;3657;49.630;11.018;2022-09-09T06:07:36;16.20;98.60
7232;DHT22;3657;49.630;11.018;2022-09-09T06:10:08;16.30;97.30
7232;DHT22;3657;49.630;11.018;2022-09-09T06:12:36;16.20;97.70
7232;DHT22;3657;49.630;11.018;2022-09-09T06:15:03;16.30;96.70
7232;DHT22;3657;49.630;11.018;2022-09-09T06:17:30;16.30;96.10
7232;DHT22;3657;49.630;11.018;2022-09-09T06:19:57;16.30;97.10
7232;DHT22;3657;49.630;11.018;2022-09-09T06:22:24;16.30;97.90
7232;DHT22;3657;49.630;11.018;2022-09-09T06:24:51;16.20;96.40
7232;DHT22;3657;49.630;11.018;2022-09-09T06:27:19;16.30;97.40
7232;DHT22;3657;49.630;11.018;2022-09-09T06:29:47;16.30;97.30
7232;DHT22;3657;49.630;11.018;2022-09-09T06:32:14;16.30;98.70
7232;DHT22;3657;49.630;11.018;2022-09-09T06:34:41;16.30;97.50
7232;DHT22;3657;49.630;11.018;2022-09-09T06:37:07;16.40;97.10
7232;DHT22;3657;49.630;11.018;2022-09-09T06:39:34;16.70;96.10
7232;DHT22;3657;49.630;11.018;2022-09-09T06:42:01;16.80;97.30
7232;DHT22;3657;49.630;11.018;2022-09-09T06:44:28;17.10;97.40
7232;DHT22;3657;49.630;11.018;2022-09-09T06:47:00;17.60;97.50
7232;DHT22;3657;49.630;11.018;2022-09-09T06:49:26;18.00;95.40
7232;DHT22;3657;49.630;11.018;2022-09-09T06:51:53;18.00;95.20
7232;DHT22;3657;49.630;11.018;2022-09-09T06:54:20;18.10;95.10
7232;DHT22;3657;49.630;11.018;2022-09-09T06:56:47;18.00;95.20
7232;DHT22;3657;49.630;11.018;2022-09-09T06:59:15;18.00;94.10
7232;DHT22;3657;49.630;11.018;2022-09-09T07:01:43;18.00;93.70
7232;DHT22;3657;49.630;11.018;2022-09-09T07:04:11;18.00;95.30
7232;DHT22;3657;49.630;11.018;2022-09-09T07:06:42;18.00;94.40
7232;DHT22;3657;49.630;11.018;2022-09-09T07:09:11;17.90;94.00
7232;DHT22;3657;49.630;11.018;2022-09-09T07:11:39;17.90;94.40
7232;DHT22;3657;49.630;11.018;2022-09-09T07:14:06;17.90;94.50
7232;DHT22;3657;49.630;11.018;2022-09-09T07:16:34;18.10;94.40
7232;DHT22;3657;49.630;11.018;2022-09-09T07:19:02;18.30;94.80
7232;DHT22;3657;49.630;11.018;2022-09-09T07:21:32;18.50;94.00
7232;DHT22;3657;49.630;11.018;2022-09-09T07:23:59;19.00;94.00
7232;DHT22;3657;49.630;11.018;2022-09-09T07:26:28;19.60;93.50
7232;DHT22;3657;49.630;11.018;2022-09-09T07:28:55;20.10;92.60
7232;DHT22;3657;49.630;11.018;2022-09-09T07:31:24;20.40;91.70
7232;DHT22;3657;49.630;11.018;2022-09-09T07:33:51;20.40;91.60
7232;DHT22;3657;49.630;11.018;2022-09-09T07:36:20;20.20;91.40
7232;DHT22;3657;49.630;11.018;2022-09-09T07:38:50;20.20;91.70
7232;DHT22;3657;49.630;11.018;2022-09-09T07:41:20;20.40;91.10
7232;DHT22;3657;49.630;11.018;2022-09-09T07:43:48;20.80;91.10
7232;DHT22;3657;49.630;11.018;2022-09-09T07:46:17;21.00;90.20
7232;DHT22;3657;49.630;11.018;2022-09-09T07:48:45;21.20;89.70
7232;DHT22;3657;49.630;11.018;2022-09-09T07:51:14;21.50;89.90
7232;DHT22;3657;49.630;11.018;2022-09-09T07:53:44;21.80;88.60
7232;DHT22;3657;49.630;11.018;2022-09-09T07:56:14;22.00;89.00
7232;DHT22;3657;49.630;11.018;2022-09-09T07:58:44;22.20;87.20
7232;DHT22;3657;49.630;11.018;2022-09-09T08:01:14;22.10;86.20
7232;DHT22;3657;49.630;11.018;2022-09-09T08:03:41;21.70;87.30
7232;DHT22;3657;49.630;11.018;2022-09-09T08:06:09;21.30;88.10
7232;DHT22;3657;49.630;11.018;2022-09-09T08:08:36;20.90;89.60
7232;DHT22;3657;49.630;11.018;2022-09-09T08:11:06;20.50;90.20
7232;DHT22;3657;49.630;11.018;2022-09-09T08:13:36;20.20;90.50
7232;DHT22;3657;49.630;11.018;2022-09-09T08:16:08;20.00;91.20
7232;DHT22;3657;49.630;11.018;2022-09-09T08:18:35;20.20;91.40
7232;DHT22;3657;49.630;11.018;2022-09-09T08:21:08;20.80;90.80
7232;DHT22;3657;49.630;11.018;2022-09-09T08:23:38;21.40;89.20
7232;DHT22;3657;49.630;11.018;2022-09-09T08:26:06;21.60;89.30
7232;DHT22;3657;49.630;11.018;2022-09-09T08:28:36;21.90;88.10
7232;DHT22;3657;49.630;11.018;2022-09-09T08:31:10;22.30;87.60
7232;DHT22;3657;49.630;11.018;2022-09-09T08:33:39;22.80;86.40
7232;DHT22;3657;49.630;11.018;2022-09-09T08:36:08;23.00;85.20
7232;DHT22;3657;49.630;11.018;2022-09-09T08:38:36;23.10;82.50
7232;DHT22;3657;49.630;11.018;2022-09-09T08:44:29;23.60;82.40
7232;DHT22;3657;49.630;11.018;2022-09-09T08:47:04;23.70;84.40
7232;DHT22;3657;49.630;11.018;2022-09-09T08:49:57;24.00;83.70
7232;DHT22;3657;49.630;11.018;2022-09-09T08:52:28;24.20;83.30
7232;DHT22;3657;49.630;11.018;2022-09-09T08:54:58;24.40;81.60
7232;DHT22;3657;49.630;11.018;2022-09-09T08:57:31;24.60;81.00
7232;DHT22;3657;49.630;11.018;2022-09-09T09:00:00;24.80;83.10
7232;DHT22;3657;49.630;11.018;2022-09-09T09:02:32;24.90;81.50
7232;DHT22;3657;49.630;11.018;2022-09-09T09:05:08;25.10;79.10
7232;DHT22;3657;49.630;11.018;2022-09-09T09:07:48;25.20;80.50
7232;DHT22;3657;49.630;11.018;2022-09-09T09:10:28;25.40;79.20
7232;DHT22;3657;49.630;11.018;2022-09-09T09:12:58;25.60;78.30
7232;DHT22;3657;49.630;11.018;2022-09-09T09:15:32;25.60;78.00
7232;DHT22;3657;49.630;11.018;2022-09-09T09:18:02;25.80;77.60
7232;DHT22;3657;49.630;11.018;2022-09-09T09:20:34;26.00;78.90
7232;DHT22;3657;49.630;11.018;2022-09-09T09:23:05;26.30;79.00
7232;DHT22;3657;49.630;11.018;2022-09-09T09:25:35;26.40;78.30
7232;DHT22;3657;49.630;11.018;2022-09-09T09:28:13;26.30;74.20
7232;DHT22;3657;49.630;11.018;2022-09-09T09:30:47;26.60;78.80
7232;DHT22;3657;49.630;11.018;2022-09-09T09:33:20;26.60;78.70
7232;DHT22;3657;49.630;11.018;2022-09-09T09:35:48;26.70;76.30
7232;DHT22;3657;49.630;11.018;2022-09-09T09:38:18;26.50;74.60
7232;DHT22;3657;49.630;11.018;2022-09-09T09:40:49;26.30;74.90
7232;DHT22;3657;49.630;11.018;2022-09-09T09:43:21;26.20;77.80
7232;DHT22;3657;49.630;11.018;2022-09-09T09:45:51;26.50;75.70
7232;DHT22;3657;49.630;11.018;2022-09-09T09:48:18;26.90;76.50
7232;DHT22;3657;49.630;11.018;2022-09-09T09:50:49;27.00;75.90
7232;DHT22;3657;49.630;11.018;2022-09-09T09:53:21;27.20;71.60
7232;DHT22;3657;49.630;11.018;2022-09-09T09:55:56;27.40;74.30
7232;DHT22;3657;49.630;11.018;2022-09-09T09:58:25;27.60;73.60
7232;DHT22;3657;49.630;11.018;2022-09-09T10:00:54;27.40;74.90
7232;DHT22;3657;49.630;11.018;2022-09-09T10:03:24;27.00;75.20
7232;DHT22;3657;49.630;11.018;2022-09-09T10:05:51;26.50;78.70
7232;DHT22;3657;49.630;11.018;2022-09-09T10:08:18;26.10;78.00
7232;DHT22;3657;49.630;11.018;2022-09-09T10:10:53;25.60;77.60
7232;DHT22;3657;49.630;11.018;2022-09-09T10:13:29;25.40;78.40
7232;DHT22;3657;49.630;11.018;2022-09-09T10:16:12;25.10;80.40
7232;DHT22;3657;49.630;11.018;2022-09-09T10:18:49;25.00;79.30
7232;DHT22;3657;49.630;11.018;2022-09-09T10:21:27;25.20;79.80
7232;DHT22;3657;49.630;11.018;2022-09-09T10:24:11;25.80;78.50
7232;DHT22;3657;49.630;11.018;2022-09-09T10:26:47;26.40;76.00
7232;DHT22;3657;49.630;11.018;2022-09-09T10:32:28;27.10;75.10
7232;DHT22;3657;49.630;11.018;2022-09-09T10:35:03;27.10;75.70
7232;DHT22;3657;49.630;11.018;2022-09-09T10:37:41;27.20;73.00
7232;DHT22;3657;49.630;11.018;2022-09-09T10:40:23;27.40;77.10
7232;DHT22;3657;49.630;11.018;2022-09-09T10:42:56;27.70;74.80
7232;DHT22;3657;49.630;11.018;2022-09-09T10:45:29;27.70;75.30
7232;DHT22;3657;49.630;11.018;2022-09-09T10:48:15;27.70;74.10
7232;DHT22;3657;49.630;11.018;2022-09-09T10:50:50;27.90;73.20
7232;DHT22;3657;49.630;11.018;2022-09-09T10:53:27;28.00;70.10
7232;DHT22;3657;49.630;11.018;2022-09-09T10:56:06;28.20;73.80
7232;DHT22;3657;49.630;11.018;2022-09-09T10:58:38;28.20;74.80
7232;DHT22;3657;49.630;11.018;2022-09-09T11:01:13;28.10;74.40
7232;DHT22;3657;49.630;11.018;2022-09-09T11:03:46;27.90;75.10
7232;DHT22;3657;49.630;11.018;2022-09-09T11:06:19;28.10;72.30
7232;DHT22;3657;49.630;11.018;2022-09-09T11:08:47;28.40;72.80
7232;DHT22;3657;49.630;11.018;2022-09-09T11:11:19;28.50;73.20
7232;DHT22;3657;49.630;11.018;2022-09-09T11:13:52;28.60;70.90
7232;DHT22;3657;49.630;11.018;2022-09-09T11:16:24;28.70;70.20
7232;DHT22;3657;49.630;11.018;2022-09-09T11:18:57;28.90;72.50
7232;DHT22;3657;49.630;11.018;2022-09-09T11:21:28;29.00;72.10
7232;DHT22;3657;49.630;11.018;2022-09-09T11:23:59;29.00;71.30
7232;DHT22;3657;49.630;11.018;2022-09-09T11:26:32;28.90;70.50
7232;DHT22;3657;49.630;11.018;2022-09-09T11:32:39;28.90;71.50
7232;DHT22;3657;49.630;11.018;2022-09-09T11:35:19;29.10;70.30
7232;DHT22;3657;49.630;11.018;2022-09-09T11:37:58;29.30;71.80
7232;DHT22;3657;49.630;11.018;2022-09-09T11:40:28;29.40;71.60
7232;DHT22;3657;49.630;11.018;2022-09-09T11:43:05;29.60;72.40
7232;DHT22;3657;49.630;11.018;2022-09-09T11:45:35;29.60;71.80
7232;DHT22;3657;49.630;11.018;2022-09-09T11:48:04;29.40;71.80
7232;DHT22;3657;49.630;11.018;2022-09-09T11:50:37;29.20;71.90
7232;DHT22;3657;49.630;11.018;2022-09-09T11:53:22;29.20;73.20
7232;DHT22;3657;49.630;11.018;2022-09-09T11:56:13;28.90;67.70
7232;DHT22;3657;49.630;11.018;2022-09-09T11:58:44;28.90;72.90
7232;DHT22;3657;49.630;11.018;2022-09-09T12:01:28;29.00;70.90
7232;DHT22;3657;49.630;11.018;2022-09-09T12:04:06;28.90;71.50
7232;DHT22;3657;49.630;11.018;2022-09-09T12:06:44;28.90;72.90
7232;DHT22;3657;49.630;11.018;2022-09-09T12:09:23;28.90;71.40
7232;DHT22;3657;49.630;11.018;2022-09-09T12:11:51;28.90;72.70
7232;DHT22;3657;49.630;11.018;2022-09-09T12:14:22;28.90;72.60
7232;DHT22;3657;49.630;11.018;2022-09-09T12:16:49;28.90;71.60
7232;DHT22;3657;49.630;11.018;2022-09-09T12:19:19;28.90;69.10
7232;DHT22;3657;49.630;11.018;2022-09-09T12:21:54;28.90;70.90
7232;DHT22;3657;49.630;11.018;2022-09-09T12:24:30;28.80;66.20
7232;DHT22;3657;49.630;11.018;2022-09-09T12:27:07;28.90;69.60
7232;DHT22;3657;49.630;11.018;2022-09-09T12:29:46;28.80;66.20
7232;DHT22;3657;49.630;11.018;2022-09-09T12:32:19;29.00;66.60
7232;DHT22;3657;49.630;11.018;2022-09-09T12:34:48;29.10;66.80
7232;DHT22;3657;49.630;11.018;2022-09-09T12:37:25;28.90;66.20
7232;DHT22;3657;49.630;11.018;2022-09-09T12:39:55;28.80;67.30
7232;DHT22;3657;49.630;11.018;2022-09-09T12:42:23;28.70;67.30
7232;DHT22;3657;49.630;11.018;2022-09-09T12:44:55;28.50;67.00
7232;DHT22;3657;49.630;11.018;2022-09-09T12:47:34;28.20;67.10
7232;DHT22;3657;49.630;11.018;2022-09-09T12:50:03;28.00;68.30
7232;DHT22;3657;49.630;11.018;2022-09-09T12:52:35;27.80;66.90
7232;DHT22;3657;49.630;11.018;2022-09-09T12:55:05;27.50;66.10
7232;DHT22;3657;49.630;11.018;2022-09-09T12:57:36;27.10;65.50
7232;DHT22;3657;49.630;11.018;2022-09-09T13:00:07;26.80;69.20
7232;DHT22;3657;49.630;11.018;2022-09-09T13:02:46;26.90;69.20
7232;DHT22;3657;49.630;11.018;2022-09-09T13:05:15;26.60;68.50
7232;DHT22;3657;49.630;11.018;2022-09-09T13:07:44;26.40;69.50
7232;DHT22;3657;49.630;11.018;2022-09-09T13:10:12;26.20;70.90
7232;DHT22;3657;49.630;11.018;2022-09-09T13:12:39;26.20;73.10
7232;DHT22;3657;49.630;11.018;2022-09-09T13:15:15;26.30;75.20
7232;DHT22;3657;49.630;11.018;2022-09-09T13:17:42;26.30;77.50
7232;DHT22;3657;49.630;11.018;2022-09-09T13:20:16;26.30;78.40
7232;DHT22;3657;49.630;11.018;2022-09-09T13:22:47;26.30;78.10
7232;DHT22;3657;49.630;11.018;2022-09-09T13:25:20;26.30;78.80
7232;DHT22;3657;49.630;11.018;2022-09-09T13:27:58;26.30;79.40
7232;DHT22;3657;49.630;11.018;2022-09-09T13:30:28;26.30;80.00
7232;DHT22;3657;49.630;11.018;2022-09-09T13:33:04;26.20;79.50
7232;DHT22;3657;49.630;11.018;2022-09-09T13:35:31;26.20;80.60
7232;DHT22;3657;49.630;11.018;2022-09-09T13:38:06;26.20;82.80
7232;DHT22;3657;49.630;11.018;2022-09-09T13:40:34;26.20;81.20
7232;DHT22;3657;49.630;11.018;2022-09-09T13:43:02;26.20;82.10
7232;DHT22;3657;49.630;11.018;2022-09-09T13:45:31;26.10;84.10
7232;DHT22;3657;49.630;11.018;2022-09-09T13:48:09;26.00;83.70
7232;DHT22;3657;49.630;11.018;2022-09-09T13:50:36;25.90;84.30
7232;DHT22;3657;49.630;11.018;2022-09-09T13:53:04;25.90;82.80
7232;DHT22;3657;49.630;11.018;2022-09-09T13:55:31;25.80;83.90
7232;DHT22;3657;49.630;11.018;2022-09-09T13:57:59;25.70;83.40
7232;DHT22;3657;49.630;11.018;2022-09-09T14:00:29;25.60;83.80
7232;DHT22;3657;49.630;11.018;2022-09-09T14:02:56;25.60;83.50
7232;DHT22;3657;49.630;11.018;2022-09-09T14:05:23;25.50;83.00
7232;DHT22;3657;49.630;11.018;2022-09-09T14:07:50;25.40;82.90
7232;DHT22;3657;49.630;11.018;2022-09-09T14:10:19;25.40;83.10
7232;DHT22;3657;49.630;11.018;2022-09-09T14:12:46;25.30;83.00
7232;DHT22;3657;49.630;11.018;2022-09-09T14:15:14;25.30;83.10
7232;DHT22;3657;49.630;11.018;2022-09-09T14:17:41;25.30;82.90
7232;DHT22;3657;49.630;11.018;2022-09-09T14:20:10;25.20;82.80
7232;DHT22;3657;49.630;11.018;2022-09-09T14:22:40;25.10;82.10
7232;DHT22;3657;49.630;11.018;2022-09-09T14:25:08;24.80;83.30
7232;DHT22;3657;49.630;11.018;2022-09-09T14:27:36;24.80;86.20
7232;DHT22;3657;49.630;11.018;2022-09-09T14:30:05;24.90;85.20
7232;DHT22;3657;49.630;11.018;2022-09-09T14:32:32;24.90;85.10
7232;DHT22;3657;49.630;11.018;2022-09-09T14:34:59;24.90;84.30
7232;DHT22;3657;49.630;11.018;2022-09-09T14:37:27;24.80;83.00
7232;DHT22;3657;49.630;11.018;2022-09-09T14:39:53;24.70;83.90
7232;DHT22;3657;49.630;11.018;2022-09-09T14:42:21;24.80;84.90
7232;DHT22;3657;49.630;11.018;2022-09-09T14:44:50;24.70;82.40
7232;DHT22;3657;49.630;11.018;2022-09-09T14:47:16;24.60;82.90
7232;DHT22;3657;49.630;11.018;2022-09-09T14:49:43;24.40;84.40
7232;DHT22;3657;49.630;11.018;2022-09-09T14:52:11;24.30;84.20
7232;DHT22;3657;49.630;11.018;2022-09-09T14:54:38;24.20;86.00
7232;DHT22;3657;49.630;11.018;2022-09-09T14:57:05;24.30;86.40
7232;DHT22;3657;49.630;11.018;2022-09-09T14:59:32;24.30;86.40
7232;DHT22;3657;49.630;11.018;2022-09-09T15:02:01;24.40;86.40
7232;DHT22;3657;49.630;11.018;2022-09-09T15:04:29;24.40;84.70
7232;DHT22;3657;49.630;11.018;2022-09-09T15:06:56;24.40;86.40
7232;DHT22;3657;49.630;11.018;2022-09-09T15:09:23;24.50;85.40
7232;DHT22;3657;49.630;11.018;2022-09-09T15:11:50;24.60;84.70
7232;DHT22;3657;49.630;11.018;2022-09-09T15:14:17;24.60;84.70
7232;DHT22;3657;49.630;11.018;2022-09-09T15:16:44;24.60;84.60
7232;DHT22;3657;49.630;11.018;2022-09-09T15:19:12;24.40;84.40
7232;DHT22;3657;49.630;11.018;2022-09-09T15:21:38;24.00;83.30
7232;DHT22;3657;49.630;11.018;2022-09-09T15:24:06;23.70;85.20
7232;DHT22;3657;49.630;11.018;2022-09-09T15:26:33;23.30;86.20
7232;DHT22;3657;49.630;11.018;2022-09-09T15:29:01;23.10;87.30
7232;DHT22;3657;49.630;11.018;2022-09-09T15:31:29;22.80;87.80
7232;DHT22;3657;49.630;11.018;2022-09-09T15:33:57;22.60;88.80
7232;DHT22;3657;49.630;11.018;2022-09-09T15:36:28;22.70;89.40
7232;DHT22;3657;49.630;11.018;2022-09-09T15:38:58;22.70;89.00
7232;DHT22;3657;49.630;11.018;2022-09-09T15:41:25;22.60;88.80
7232;DHT22;3657;49.630;11.018;2022-09-09T15:43:54;22.60;89.30
7232;DHT22;3657;49.630;11.018;2022-09-09T15:46:27;22.50;89.20
7232;DHT22;3657;49.630;11.018;2022-09-09T15:48:55;22.30;89.40
7232;DHT22;3657;49.630;11.018;2022-09-09T15:51:23;22.10;90.00
7232;DHT22;3657;49.630;11.018;2022-09-09T15:53:55;22.20;90.30
7232;DHT22;3657;49.630;11.018;2022-09-09T15:56:23;22.30;90.20
7232;DHT22;3657;49.630;11.018;2022-09-09T15:58:50;22.40;90.00
7232;DHT22;3657;49.630;11.018;2022-09-09T16:01:17;22.50;90.00
7232;DHT22;3657;49.630;11.018;2022-09-09T16:03:45;22.50;90.00
7232;DHT22;3657;49.630;11.018;2022-09-09T16:06:13;22.60;89.80
7232;DHT22;3657;49.630;11.018;2022-09-09T16:08:42;22.60;89.40
7232;DHT22;3657;49.630;11.018;2022-09-09T16:11:12;22.80;89.10
7232;DHT22;3657;49.630;11.018;2022-09-09T16:13:40;22.90;86.10
7232;DHT22;3657;49.630;11.018;2022-09-09T16:16:08;23.10;86.30